Terminal Aerodrome Forecast
Issued by NWS

Home | Current Version | Previous Version | Text Only | Print | Product List | Glossary Off
Versions: 1 2 3 4 5 6 7 8 9 10 11 12 13 14

000
FTUS43 KICT 230804 AAA
TAFHUT
TAF AMD
KHUT 230804Z 2308/2406 05012KT P6SM VCTS SCT070CB BKN120
      TEMPO 2308/2310 VRB25G35KT TSRA BKN070CB
     FM231200 05005KT P6SM SCT250
     FM231800 05007KT P6SM SCT100=

USA.gov is the U.S. government's official web portal to all federal, state and local government web resources and services.